Time,TemperatureF,DewpointF,PressureIn,WindDirection,WindDirectionDegrees,WindSpeedMPH,WindSpeedGustMPH,Humidity,HourlyPrecipIn,Conditions,Clouds,dailyrainin,SoftwareType,DateUTC
2013-01-30 00:22:00,37.0,-99.9,30.07,SW,225,-999.0,-999.0,-999,-99.99,,,-99.99,,2013-01-30 05:22:00,
2013-01-30 00:33:00,37.0,-99.9,30.07,SW,225,-999.0,-999.0,-999,-99.99,,,-99.99,,2013-01-30 05:33:00,
2013-01-30 00:43:00,37.0,-99.9,30.07,SW,225,-999.0,-999.0,-999,-99.99,,,-99.99,,2013-01-30 05:43:00,
2013-01-30 00:52:00,37.0,-99.9,30.07,SW,225,-999.0,-999.0,-999,-99.99,,,-99.99,,2013-01-30 05:52:00,
2013-01-30 01:22:00,37.0,-99.9,30.03,SW,225,-999.0,-999.0,-999,-99.99,,,-99.99,,2013-01-30 06:22:00,
2013-01-30 01:32:00,37.0,-99.9,30.03,SW,225,-999.0,-999.0,-999,-99.99,,,-99.99,,2013-01-30 06:32:00,
2013-01-30 01:42:00,37.0,-99.9,30.03,SW,225,-999.0,-999.0,-999,-99.99,,,-99.99,,2013-01-30 06:42:00,
2013-01-30 01:52:00,37.0,-99.9,30.03,SW,225,-999.0,-999.0,-999,-99.99,,,-99.99,,2013-01-30 06:52:00,
2013-01-30 02:22:00,37.0,-99.9,30.01,SW,225,-999.0,-999.0,-999,-99.99,,,-99.99,,2013-01-30 07:22:00,
2013-01-30 02:32:00,37.0,-99.9,30.01,SW,225,-999.0,-999.0,-999,-99.99,,,-99.99,,2013-01-30 07:32:00,
2013-01-30 02:42:00,37.0,-99.9,30.01,SW,225,-999.0,-999.0,-999,-99.99,,,-99.99,,2013-01-30 07:42:00,
2013-01-30 02:52:00,37.0,-99.9,30.01,SW,225,-999.0,-999.0,-999,-99.99,,,-99.99,,2013-01-30 07:52:00,
2013-01-30 03:32:00,37.0,-99.9,29.99,SW,225,-999.0,-999.0,-999,-99.99,,,-99.99,,2013-01-30 08:32:00,
2013-01-30 03:42:00,37.0,-99.9,29.99,SW,225,-999.0,-999.0,-999,-99.99,,,-99.99,,2013-01-30 08:42:00,
2013-01-30 03:52:00,37.0,-99.9,29.99,SW,225,-999.0,-999.0,-999,-99.99,,,-99.99,,2013-01-30 08:52:00,
2013-01-30 04:22:00,36.0,-99.9,29.95,SW,225,-999.0,-999.0,-999,-99.99,,,-99.99,,2013-01-30 09:22:00,
2013-01-30 04:32:00,36.0,-99.9,29.95,SW,225,-999.0,-999.0,-999,-99.99,,,-99.99,,2013-01-30 09:32:00,
2013-01-30 04:42:00,36.0,-99.9,29.95,SW,225,-999.0,-999.0,-999,-99.99,,,-99.99,,2013-01-30 09:42:00,
2013-01-30 04:52:00,36.0,-99.9,29.95,SW,225,-999.0,-999.0,-999,-99.99,,,-99.99,,2013-01-30 09:52:00,
2013-01-30 05:22:00,36.0,-99.9,29.93,SW,225,-999.0,-999.0,-999,-99.99,,,-99.99,,2013-01-30 10:22:00,
2013-01-30 05:32:00,36.0,-99.9,29.93,SW,225,-999.0,-999.0,-999,-99.99,,,-99.99,,2013-01-30 10:32:00,
2013-01-30 05:42:00,36.0,-99.9,29.93,SW,225,-999.0,-999.0,-999,-99.99,,,-99.99,,2013-01-30 10:42:00,
2013-01-30 05:52:00,36.0,-99.9,29.93,SW,225,-999.0,-999.0,-999,-99.99,,,-99.99,,2013-01-30 10:52:00,
2013-01-30 06:22:00,36.0,-99.9,29.92,SW,225,-999.0,-999.0,-999,-99.99,,,-99.99,,2013-01-30 11:22:00,
2013-01-30 06:33:00,36.0,-99.9,29.92,SW,225,-999.0,-999.0,-999,-99.99,,,-99.99,,2013-01-30 11:33:00,
2013-01-30 06:42:00,36.0,-99.9,29.92,SW,225,-999.0,-999.0,-999,-99.99,,,-99.99,,2013-01-30 11:42:00,
2013-01-30 06:52:00,36.0,-99.9,29.92,SW,225,-999.0,-999.0,-999,-99.99,,,-99.99,,2013-01-30 11:52:00,
2013-01-30 07:22:00,36.0,-99.9,29.90,SW,225,-999.0,-999.0,-999,-99.99,,,-99.99,,2013-01-30 12:22:00,
2013-01-30 07:33:00,36.0,-99.9,29.90,SW,225,-999.0,-999.0,-999,-99.99,,,-99.99,,2013-01-30 12:33:00,
2013-01-30 07:43:00,36.0,-99.9,29.90,SW,225,-999.0,-999.0,-999,-99.99,,,-99.99,,2013-01-30 12:43:00,
2013-01-30 07:53:00,37.0,-99.9,29.88,SW,225,-999.0,-999.0,-999,-99.99,,,-99.99,,2013-01-30 12:53:00,
2013-01-30 08:23:00,37.0,-99.9,29.88,SW,225,-999.0,-999.0,-999,-99.99,,,-99.99,,2013-01-30 13:23:00,
2013-01-30 08:33:00,37.0,-99.9,29.88,SW,225,-999.0,-999.0,-999,-99.99,,,-99.99,,2013-01-30 13:33:00,
2013-01-30 08:43:00,37.0,-99.9,29.88,SW,225,-999.0,-999.0,-999,-99.99,,,-99.99,,2013-01-30 13:43:00,
2013-01-30 08:53:00,38.0,-99.9,29.85,SW,225,-999.0,-999.0,-999,-99.99,,,-99.99,,2013-01-30 13:53:00,
2013-01-30 09:23:00,38.0,-99.9,29.85,SW,225,-999.0,-999.0,-999,-99.99,,,-99.99,,2013-01-30 14:23:00,
2013-01-30 09:33:00,38.0,-99.9,29.85,SW,225,-999.0,-999.0,-999,-99.99,,,-99.99,,2013-01-30 14:33:00,
2013-01-30 09:43:00,38.0,-99.9,29.85,SW,225,-999.0,-999.0,-999,-99.99,,,-99.99,,2013-01-30 14:43:00,
2013-01-30 09:53:00,41.0,-99.9,29.82,SW,225,-999.0,-999.0,-999,-99.99,,,-99.99,,2013-01-30 14:53:00,
2013-01-30 10:24:00,41.0,-99.9,29.82,SW,225,-999.0,-999.0,-999,-99.99,,,-99.99,,2013-01-30 15:24:00,
2013-01-30 10:33:00,41.0,-99.9,29.82,SW,225,-999.0,-999.0,-999,-99.99,,,-99.99,,2013-01-30 15:33:00,
2013-01-30 10:43:00,41.0,-99.9,29.82,SW,225,-999.0,-999.0,-999,-99.99,,,-99.99,,2013-01-30 15:43:00,
2013-01-30 11:23:00,48.0,-99.9,29.79,SW,225,-999.0,-999.0,-999,-99.99,,,-99.99,,2013-01-30 16:23:00,
2013-01-30 11:33:00,48.0,-99.9,29.79,SW,225,-999.0,-999.0,-999,-99.99,,,-99.99,,2013-01-30 16:33:00,
2013-01-30 11:42:00,48.0,-99.9,29.79,SW,225,-999.0,-999.0,-999,-99.99,,,-99.99,,2013-01-30 16:42:00,
2013-01-30 11:52:00,48.0,-99.9,29.79,SW,225,-999.0,-999.0,-999,-99.99,,,-99.99,,2013-01-30 16:52:00,
2013-01-30 11:53:00,54.0,-99.9,29.72,SSW,213,-999.0,10.0,-999,-99.99,,,-99.99,,2013-01-30 16:53:00,
2013-01-30 12:23:00,54.0,-99.9,29.72,SSW,213,-999.0,10.0,-999,-99.99,,,-99.99,,2013-01-30 17:23:00,
2013-01-30 12:34:00,54.0,-99.9,29.72,SSW,213,-999.0,10.0,-999,-99.99,,,-99.99,,2013-01-30 17:34:00,
2013-01-30 12:43:00,54.0,-99.9,29.72,SSW,213,-999.0,10.0,-999,-99.99,,,-99.99,,2013-01-30 17:43:00,
2013-01-30 12:53:00,55.0,-99.9,29.67,West,271,-999.0,13.0,-999,-99.99,,,-99.99,,2013-01-30 17:53:00,
2013-01-30 13:23:00,55.0,-99.9,29.67,West,271,-999.0,13.0,-999,-99.99,,,-99.99,,2013-01-30 18:23:00,
2013-01-30 13:33:00,55.0,-99.9,29.67,West,271,-999.0,13.0,-999,-99.99,,,-99.99,,2013-01-30 18:33:00,
2013-01-30 13:43:00,55.0,-99.9,29.67,West,271,-999.0,13.0,-999,-99.99,,,-99.99,,2013-01-30 18:43:00,
2013-01-30 13:53:00,56.0,-99.9,29.62,SW,232,-999.0,10.0,-999,-99.99,,,-99.99,,2013-01-30 18:53:00,
2013-01-30 14:22:00,56.0,-99.9,29.62,SW,232,-999.0,10.0,-999,-99.99,,,-99.99,,2013-01-30 19:22:00,
2013-01-30 14:33:00,56.0,-99.9,29.62,SW,232,-999.0,10.0,-999,-99.99,,,-99.99,,2013-01-30 19:33:00,
2013-01-30 14:43:00,56.0,-99.9,29.62,SW,232,-999.0,10.0,-999,-99.99,,,-99.99,,2013-01-30 19:43:00,
2013-01-30 14:53:00,58.0,-99.9,29.60,SW,215,7.0,11.0,-999,-99.99,,,-99.99,,2013-01-30 19:53:00,
2013-01-30 15:22:00,58.0,-99.9,29.60,SW,215,7.0,11.0,-999,-99.99,,,-99.99,,2013-01-30 20:22:00,
2013-01-30 15:33:00,58.0,-99.9,29.60,SW,215,7.0,11.0,-999,-99.99,,,-99.99,,2013-01-30 20:33:00,
2013-01-30 15:42:00,58.0,-99.9,29.60,SW,215,7.0,11.0,-999,-99.99,,,-99.99,,2013-01-30 20:42:00,
2013-01-30 15:53:00,61.0,-99.9,29.57,WSW,239,6.0,18.0,-999,-99.99,,,-99.99,,2013-01-30 20:53:00,
2013-01-30 16:23:00,61.0,-99.9,29.57,WSW,239,6.0,18.0,-999,-99.99,,,-99.99,,2013-01-30 21:23:00,
2013-01-30 16:32:00,61.0,-99.9,29.57,WSW,239,6.0,18.0,-999,-99.99,,,-99.99,,2013-01-30 21:32:00,
2013-01-30 16:43:00,61.0,-99.9,29.57,WSW,239,6.0,18.0,-999,-99.99,,,-99.99,,2013-01-30 21:43:00,
2013-01-30 16:53:00,58.0,-99.9,29.60,SW,222,-999.0,5.0,-999,-99.99,,,-99.99,,2013-01-30 21:53:00,
2013-01-30 17:23:00,58.0,-99.9,29.60,SW,222,-999.0,5.0,-999,-99.99,,,-99.99,,2013-01-30 22:23:00,
2013-01-30 17:33:00,58.0,-99.9,29.60,SW,222,-999.0,5.0,-999,-99.99,,,-99.99,,2013-01-30 22:33:00,
2013-01-30 17:43:00,58.0,-99.9,29.60,SW,222,-999.0,5.0,-999,-99.99,,,-99.99,,2013-01-30 22:43:00,
2013-01-30 18:23:00,56.0,-99.9,29.59,SW,226,-999.0,4.0,-999,-99.99,,,-99.99,,2013-01-30 23:23:00,
2013-01-30 18:33:00,56.0,-99.9,29.59,SW,226,-999.0,4.0,-999,-99.99,,,-99.99,,2013-01-30 23:33:00,
2013-01-30 18:43:00,56.0,-99.9,29.59,SW,226,-999.0,4.0,-999,-99.99,,,-99.99,,2013-01-30 23:43:00,
2013-01-30 18:52:00,56.0,-99.9,29.59,SW,226,-999.0,4.0,-999,-99.99,,,-99.99,,2013-01-30 23:52:00,
2013-01-30 18:53:00,51.0,-99.9,29.59,SSW,200,-999.0,-999.0,-999,-99.99,,,-99.99,,2013-01-30 23:53:00,
2013-01-30 19:32:00,51.0,-99.9,29.59,SSW,200,-999.0,-999.0,-999,-99.99,,,-99.99,,2013-01-31 00:32:00,
2013-01-30 19:53:00,49.0,-99.9,29.57,SSW,200,-999.0,-999.0,-999,-99.99,,,-99.99,,2013-01-31 00:53:00,
2013-01-30 20:22:00,49.0,-99.9,29.57,SSW,200,-999.0,-999.0,-999,-99.99,,,-99.99,,2013-01-31 01:22:00,
2013-01-30 20:32:00,49.0,-99.9,29.57,SSW,200,-999.0,-999.0,-999,-99.99,,,-99.99,,2013-01-31 01:32:00,
2013-01-30 20:42:00,49.0,-99.9,29.57,SSW,200,-999.0,-999.0,-999,-99.99,,,-99.99,,2013-01-31 01:42:00,
2013-01-30 21:22:00,48.0,-99.9,29.52,SSW,200,-999.0,-999.0,-999,-99.99,,,-99.99,,2013-01-31 02:22:00,
2013-01-30 21:32:00,48.0,-99.9,29.52,SSW,200,-999.0,-999.0,-999,-99.99,,,-99.99,,2013-01-31 02:32:00,
2013-01-30 21:42:00,48.0,-99.9,29.52,SSW,200,-999.0,-999.0,-999,-99.99,,,-99.99,,2013-01-31 02:42:00,
2013-01-30 21:52:00,48.0,-99.9,29.52,SSW,200,-999.0,-999.0,-999,-99.99,,,-99.99,,2013-01-31 02:52:00,
2013-01-30 22:22:00,49.0,-99.9,29.49,SSW,200,-999.0,-999.0,-999,-99.99,,,-99.99,,2013-01-31 03:22:00,
2013-01-30 22:32:00,49.0,-99.9,29.49,SSW,200,-999.0,-999.0,-999,-99.99,,,-99.99,,2013-01-31 03:32:00,
2013-01-30 22:42:00,49.0,-99.9,29.49,SSW,200,-999.0,-999.0,-999,-99.99,,,-99.99,,2013-01-31 03:42:00,
2013-01-30 22:52:00,49.0,-99.9,29.49,SSW,200,-999.0,-999.0,-999,-99.99,,,-99.99,,2013-01-31 03:52:00,
2013-01-30 23:22:00,49.0,-99.9,29.44,SSW,200,-999.0,-999.0,-999,-99.99,,,-99.99,,2013-01-31 04:22:00,
2013-01-30 23:32:00,49.0,-99.9,29.44,SSW,200,-999.0,-999.0,-999,-99.99,,,-99.99,,2013-01-31 04:32:00,
2013-01-30 23:42:00,49.0,-99.9,29.44,SSW,200,-999.0,-999.0,-999,-99.99,,,-99.99,,2013-01-31 04:42:00,
2013-01-30 23:52:00,49.0,-99.9,29.44,SSW,200,-999.0,-999.0,-999,-99.99,,,-99.99,,2013-01-31 04:52:00,